Time;durP1;ratioP1;P1;durP2;ratioP2;P2;SDS_P1;SDS_P2;PMS_P1;PMS_P2;Temp;Humidity;BMP_temperature;BMP_pressure;BME280_temperature;BME280_humidity;BME280_pressure;Samples;Min_cycle;Max_cycle;Signal;HPM_P1;HPM_P2
2023/12/18 00:01:33;;;;;;;13.45;6.13;;;;;;;;;;5031349;28;20396;-61
2023/12/18 00:04:03;;;;;;;19.75;5.82;;;;;;;;;;5031881;28;20029;-62
2023/12/18 00:06:29;;;;;;;14.52;6.07;;;;;;;;;;5022813;28;20061;-62
2023/12/18 00:08:54;;;;;;;16.15;6.75;;;;;;;;;;5014707;28;20032;-61
2023/12/18 00:11:20;;;;;;;11.63;5.63;;;;;;;;;;5011791;28;20034;-62
2023/12/18 00:13:45;;;;;;;14.43;5.78;;;;;;;;;;5011631;28;20034;-62
2023/12/18 00:16:10;;;;;;;15.43;6.40;;;;;;;;;;5015610;28;20064;-61
2023/12/18 00:18:35;;;;;;;17.17;6.63;;;;;;;;;;5016986;28;20018;-61
2023/12/18 00:21:00;;;;;;;15.50;6.67;;;;;;;;;;5011632;28;20075;-62
2023/12/18 00:23:25;;;;;;;18.75;7.07;;;;;;;;;;5011400;28;20026;-61
2023/12/18 00:25:51;;;;;;;15.70;6.93;;;;;;;;;;5011434;28;20157;-61
2023/12/18 00:28:16;;;;;;;13.13;5.67;;;;;;;;;;5024006;28;20148;-61
2023/12/18 00:30:41;;;;;;;13.85;6.82;;;;;;;;;;5030292;28;20028;-61
2023/12/18 00:33:06;;;;;;;24.40;8.83;;;;;;;;;;5021589;28;20180;-61
2023/12/18 00:35:31;;;;;;;19.65;8.25;;;;;;;;;;5021231;28;20473;-61
2023/12/18 00:37:57;;;;;;;16.38;7.10;;;;;;;;;;5019606;28;20104;-61
2023/12/18 00:40:22;;;;;;;16.15;6.90;;;;;;;;;;5011347;28;20026;-61
2023/12/18 00:42:47;;;;;;;17.50;7.43;;;;;;;;;;5011218;28;20046;-62
2023/12/18 00:45:13;;;;;;;22.70;8.20;;;;;;;;;;5011266;28;20103;-60
2023/12/18 00:47:39;;;;;;;18.15;7.40;;;;;;;;;;5019273;28;20516;-60
2023/12/18 00:50:07;;;;;;;17.63;7.53;;;;;;;;;;5011263;28;20022;-60
2023/12/18 00:52:32;;;;;;;22.30;9.55;;;;;;;;;;5010858;28;20120;-60
2023/12/18 00:54:58;;;;;;;19.55;7.53;;;;;;;;;;5012159;28;20528;-63
2023/12/18 00:57:23;;;;;;;15.40;6.57;;;;;;;;;;5022458;28;20037;-60
2023/12/18 00:59:48;;;;;;;17.15;6.40;;;;;;;;;;5014711;28;20097;-61
2023/12/18 01:02:13;;;;;;;19.07;6.80;;;;;;;;;;5010616;28;20517;-62
2023/12/18 01:04:38;;;;;;;16.45;6.80;;;;;;;;;;5011413;28;20042;-61
2023/12/18 01:07:03;;;;;;;14.82;6.57;;;;;;;;;;5021332;28;20056;-61
2023/12/18 01:09:29;;;;;;;13.87;6.03;;;;;;;;;;5017753;28;20324;-61
2023/12/18 01:11:54;;;;;;;16.55;6.75;;;;;;;;;;5010460;28;20092;-61
2023/12/18 01:14:19;;;;;;;14.65;5.97;;;;;;;;;;5010818;28;20030;-62
2023/12/18 01:16:44;;;;;;;17.30;6.70;;;;;;;;;;5018201;28;20433;-61
2023/12/18 01:19:09;;;;;;;14.90;6.70;;;;;;;;;;5010741;28;20048;-61
2023/12/18 01:21:34;;;;;;;13.68;6.22;;;;;;;;;;5014031;28;20029;-62
2023/12/18 01:23:59;;;;;;;14.98;6.40;;;;;;;;;;5030287;28;20130;-61
2023/12/18 01:26:25;;;;;;;15.53;6.70;;;;;;;;;;5024584;28;20013;-61
2023/12/18 01:28:50;;;;;;;14.10;6.37;;;;;;;;;;5018401;28;20496;-62
2023/12/18 01:31:21;;;;;;;13.87;5.73;;;;;;;;;;5010385;28;20486;-61
2023/12/18 01:33:47;;;;;;;13.73;5.80;;;;;;;;;;5010678;28;20164;-62
2023/12/18 01:36:12;;;;;;;13.63;5.83;;;;;;;;;;5017323;28;20109;-61
2023/12/18 01:38:37;;;;;;;15.33;7.20;;;;;;;;;;5020699;28;20112;-61
2023/12/18 01:41:02;;;;;;;14.40;6.27;;;;;;;;;;5030095;28;20478;-61
2023/12/18 01:43:27;;;;;;;16.17;6.87;;;;;;;;;;5029729;28;20053;-61
2023/12/18 01:45:57;;;;;;;18.85;6.90;;;;;;;;;;5028843;28;20017;-62
2023/12/18 01:48:22;;;;;;;18.67;7.35;;;;;;;;;;5021253;28;20026;-62
2023/12/18 01:50:47;;;;;;;15.47;6.70;;;;;;;;;;5021753;28;20489;-62
2023/12/18 01:53:13;;;;;;;18.75;7.40;;;;;;;;;;5010336;28;21056;-63
2023/12/18 01:55:38;;;;;;;15.25;6.30;;;;;;;;;;5015339;28;20035;-62
2023/12/18 01:58:03;;;;;;;17.20;7.00;;;;;;;;;;5023322;28;20104;-60
2023/12/18 02:00:28;;;;;;;13.80;6.68;;;;;;;;;;5014316;28;20025;-61
2023/12/18 02:02:54;;;;;;;15.07;6.57;;;;;;;;;;5014212;28;20482;-61
2023/12/18 02:05:19;;;;;;;15.63;6.53;;;;;;;;;;5016544;28;20064;-61
2023/12/18 02:07:44;;;;;;;16.70;6.93;;;;;;;;;;5037015;28;20014;-61
2023/12/18 02:10:09;;;;;;;14.98;6.60;;;;;;;;;;5042333;28;20049;-62
2023/12/18 02:12:34;;;;;;;12.93;6.22;;;;;;;;;;5032246;28;20506;-65
2023/12/18 02:15:00;;;;;;;16.75;7.05;;;;;;;;;;5023233;28;20034;-62
2023/12/18 02:17:25;;;;;;;16.33;6.60;;;;;;;;;;5038061;28;20060;-62
2023/12/18 02:20:03;;;;;;;14.40;5.97;;;;;;;;;;5023561;28;20034;-61
2023/12/18 02:22:28;;;;;;;15.95;7.18;;;;;;;;;;5014398;28;20038;-61
2023/12/18 02:24:53;;;;;;;16.02;6.40;;;;;;;;;;5014215;28;20114;-62
2023/12/18 02:27:18;;;;;;;13.98;6.80;;;;;;;;;;5025685;28;20030;-62
2023/12/18 02:29:43;;;;;;;15.07;6.30;;;;;;;;;;5027786;28;20623;-62
2023/12/18 02:32:09;;;;;;;13.10;5.90;;;;;;;;;;5033354;28;20087;-62
2023/12/18 02:34:34;;;;;;;16.08;6.53;;;;;;;;;;5032695;28;20082;-61
2023/12/18 02:36:59;;;;;;;11.70;5.90;;;;;;;;;;5024276;28;20026;-62
2023/12/18 02:39:24;;;;;;;12.05;5.75;;;;;;;;;;5020219;28;20021;-62
2023/12/18 02:41:49;;;;;;;12.07;5.50;;;;;;;;;;5013132;28;20037;-61
2023/12/18 02:44:14;;;;;;;14.73;6.25;;;;;;;;;;5015163;28;20565;-62
2023/12/18 02:46:39;;;;;;;13.43;6.00;;;;;;;;;;5021769;28;20034;-62
2023/12/18 02:49:05;;;;;;;13.68;6.43;;;;;;;;;;5013486;28;20481;-62
2023/12/18 02:51:30;;;;;;;12.90;5.93;;;;;;;;;;5013272;28;20410;-62
2023/12/18 02:53:55;;;;;;;14.43;6.45;;;;;;;;;;5014694;28;20084;-62
2023/12/18 02:56:20;;;;;;;16.00;6.43;;;;;;;;;;5021276;28;20054;-61
2023/12/18 02:58:45;;;;;;;14.67;6.03;;;;;;;;;;5013827;28;20018;-62
2023/12/18 03:01:10;;;;;;;12.70;5.55;;;;;;;;;;5013021;28;20132;-62
2023/12/18 03:03:35;;;;;;;15.63;6.03;;;;;;;;;;5012854;28;20056;-62
2023/12/18 03:06:01;;;;;;;13.27;6.00;;;;;;;;;;5024209;28;20482;-62
2023/12/18 03:08:26;;;;;;;17.00;6.13;;;;;;;;;;5032289;28;20084;-62
2023/12/18 03:10:52;;;;;;;15.52;5.70;;;;;;;;;;5033136;28;20152;-62
2023/12/18 03:13:17;;;;;;;13.73;6.00;;;;;;;;;;5014650;28;20038;-62
2023/12/18 03:15:43;;;;;;;17.35;5.88;;;;;;;;;;5021211;28;20032;-62
2023/12/18 03:18:08;;;;;;;13.30;5.78;;;;;;;;;;5013693;28;20437;-62
2023/12/18 03:20:33;;;;;;;15.13;6.03;;;;;;;;;;5012962;28;20093;-62
2023/12/18 03:22:59;;;;;;;16.43;6.47;;;;;;;;;;5012568;28;20021;-62
2023/12/18 03:25:24;;;;;;;16.55;6.43;;;;;;;;;;5018174;28;20029;-61
2023/12/18 03:27:49;;;;;;;13.55;6.85;;;;;;;;;;5016371;28;20037;-61
2023/12/18 03:30:14;;;;;;;16.27;6.22;;;;;;;;;;5012630;28;20036;-62
2023/12/18 03:32:39;;;;;;;16.30;6.50;;;;;;;;;;5016977;28;20037;-60
2023/12/18 03:35:05;;;;;;;13.85;5.88;;;;;;;;;;5022381;28;20032;-62
2023/12/18 03:37:30;;;;;;;14.55;6.10;;;;;;;;;;5030767;28;20025;-60
2023/12/18 03:39:55;;;;;;;15.48;6.65;;;;;;;;;;5032347;28;20446;-61
2023/12/18 03:42:20;;;;;;;12.65;5.97;;;;;;;;;;5030789;28;20076;-61
2023/12/18 03:44:46;;;;;;;13.50;6.50;;;;;;;;;;5023876;28;20029;-62
2023/12/18 03:47:11;;;;;;;14.60;6.25;;;;;;;;;;5031992;28;20021;-62
2023/12/18 03:49:37;;;;;;;17.15;6.20;;;;;;;;;;5032221;28;20028;-60
2023/12/18 03:52:02;;;;;;;14.90;6.67;;;;;;;;;;5031862;28;20025;-62
2023/12/18 03:54:27;;;;;;;17.93;6.80;;;;;;;;;;5022950;28;20103;-62
2023/12/18 03:56:52;;;;;;;15.10;6.38;;;;;;;;;;5014753;28;20029;-63
2023/12/18 03:59:17;;;;;;;17.90;6.45;;;;;;;;;;5012313;28;20018;-62
2023/12/18 04:01:42;;;;;;;16.42;6.53;;;;;;;;;;5011822;28;20042;-63
2023/12/18 04:04:08;;;;;;;13.93;6.63;;;;;;;;;;5020245;28;20029;-63
2023/12/18 04:06:34;;;;;;;19.87;6.73;;;;;;;;;;5020637;28;20543;-62
2023/12/18 04:08:59;;;;;;;17.33;6.63;;;;;;;;;;5032001;28;20017;-61
2023/12/18 04:11:24;;;;;;;15.15;6.22;;;;;;;;;;5031242;28;20464;-63
2023/12/18 04:13:50;;;;;;;17.03;6.73;;;;;;;;;;5022917;28;20038;-60
2023/12/18 04:16:15;;;;;;;19.13;7.38;;;;;;;;;;5019962;28;20028;-61
2023/12/18 04:18:40;;;;;;;16.65;7.20;;;;;;;;;;5012419;28;20025;-63
2023/12/18 04:21:05;;;;;;;16.13;6.70;;;;;;;;;;5030835;28;20039;-63
2023/12/18 04:23:30;;;;;;;16.73;7.22;;;;;;;;;;5024157;28;20026;-62
2023/12/18 04:25:55;;;;;;;17.42;6.70;;;;;;;;;;5020368;28;20025;-62
2023/12/18 04:28:20;;;;;;;15.67;6.77;;;;;;;;;;5031318;28;20049;-61
2023/12/18 04:30:46;;;;;;;14.85;6.78;;;;;;;;;;5030991;28;20033;-60
2023/12/18 04:33:11;;;;;;;16.23;7.00;;;;;;;;;;5027115;28;20555;-61
2023/12/18 04:35:36;;;;;;;15.23;7.68;;;;;;;;;;5023012;28;20121;-62
2023/12/18 04:38:01;;;;;;;13.77;6.87;;;;;;;;;;5031418;28;20434;-63
2023/12/18 04:40:26;;;;;;;16.00;7.70;;;;;;;;;;5031252;28;20465;-62
2023/12/18 04:42:53;;;;;;;14.93;7.00;;;;;;;;;;5019043;28;20112;-62
2023/12/18 04:45:18;;;;;;;14.55;6.85;;;;;;;;;;5020923;28;20853;-62
2023/12/18 04:47:43;;;;;;;16.17;6.90;;;;;;;;;;5021306;28;20148;-62
2023/12/18 04:50:08;;;;;;;15.57;7.33;;;;;;;;;;5013575;28;20121;-62
2023/12/18 04:52:33;;;;;;;15.60;6.73;;;;;;;;;;5015136;28;20482;-62
2023/12/18 04:54:59;;;;;;;17.63;6.75;;;;;;;;;;5022019;28;20480;-62
2023/12/18 04:57:24;;;;;;;16.77;7.47;;;;;;;;;;5024034;28;20146;-62
2023/12/18 04:59:49;;;;;;;15.60;7.35;;;;;;;;;;5015743;28;20049;-62
2023/12/18 05:02:14;;;;;;;17.08;7.78;;;;;;;;;;5012777;28;20327;-63
2023/12/18 05:04:39;;;;;;;19.88;7.22;;;;;;;;;;5029438;28;20025;-62
2023/12/18 05:07:07;;;;;;;17.45;7.63;;;;;;;;;;5015518;28;20048;-62
2023/12/18 05:09:32;;;;;;;18.55;7.45;;;;;;;;;;5017009;28;20030;-62
2023/12/18 05:11:58;;;;;;;14.85;6.65;;;;;;;;;;5020117;28;20088;-61
2023/12/18 05:14:23;;;;;;;17.40;7.07;;;;;;;;;;5026829;28;20086;-62
2023/12/18 05:16:48;;;;;;;16.55;7.50;;;;;;;;;;5020763;28;20033;-62
2023/12/18 05:19:13;;;;;;;17.65;7.90;;;;;;;;;;5013824;28;20551;-62
2023/12/18 05:21:38;;;;;;;15.93;6.80;;;;;;;;;;5010396;28;20056;-62
2023/12/18 05:24:04;;;;;;;17.00;7.07;;;;;;;;;;5021499;28;20022;-61
2023/12/18 05:26:29;;;;;;;16.55;7.45;;;;;;;;;;5011770;28;20671;-62
2023/12/18 05:28:58;;;;;;;15.30;6.93;;;;;;;;;;5025208;28;20028;-61
2023/12/18 05:31:24;;;;;;;17.63;6.78;;;;;;;;;;5018569;28;20021;-61
2023/12/18 05:33:50;;;;;;;15.75;7.18;;;;;;;;;;5018057;28;20105;-61
2023/12/18 05:36:15;;;;;;;15.83;6.90;;;;;;;;;;5020668;28;20037;-62
2023/12/18 05:38:40;;;;;;;18.05;7.88;;;;;;;;;;5021796;28;20025;-62
2023/12/18 05:41:05;;;;;;;15.32;7.25;;;;;;;;;;5025697;28;20029;-62
2023/12/18 05:43:30;;;;;;;17.95;7.28;;;;;;;;;;5023465;28;20409;-62
2023/12/18 05:45:56;;;;;;;14.38;6.40;;;;;;;;;;5011515;28;20081;-62
2023/12/18 05:48:21;;;;;;;17.63;7.43;;;;;;;;;;5024426;28;20132;-62
2023/12/18 05:50:46;;;;;;;15.63;6.23;;;;;;;;;;5018936;28;20392;-62
2023/12/18 05:53:11;;;;;;;20.57;8.20;;;;;;;;;;5021891;28;20602;-62
2023/12/18 05:55:37;;;;;;;18.73;7.47;;;;;;;;;;5023561;28;20036;-62
2023/12/18 05:58:02;;;;;;;16.43;6.60;;;;;;;;;;5027445;28;20026;-61
2023/12/18 06:00:28;;;;;;;14.03;6.63;;;;;;;;;;5024923;28;20434;-61
2023/12/18 06:02:53;;;;;;;15.02;6.90;;;;;;;;;;5015690;28;20465;-61
2023/12/18 06:05:18;;;;;;;16.42;6.63;;;;;;;;;;5013961;28;20108;-61
2023/12/18 06:07:43;;;;;;;16.75;7.00;;;;;;;;;;5026347;28;20041;-61
2023/12/18 06:10:09;;;;;;;17.57;7.33;;;;;;;;;;5025078;28;20022;-61
2023/12/18 06:12:34;;;;;;;16.13;7.28;;;;;;;;;;5018290;28;20041;-61
2023/12/18 06:14:59;;;;;;;16.75;7.00;;;;;;;;;;5022433;28;20145;-61
2023/12/18 06:17:26;;;;;;;17.35;7.22;;;;;;;;;;5027072;28;20097;-61
2023/12/18 06:19:51;;;;;;;14.95;6.72;;;;;;;;;;5029744;28;20045;-63
2023/12/18 06:22:16;;;;;;;14.35;7.22;;;;;;;;;;5019908;28;20033;-63
2023/12/18 06:24:41;;;;;;;16.70;6.60;;;;;;;;;;5014711;28;20018;-62
2023/12/18 06:27:06;;;;;;;17.08;7.25;;;;;;;;;;5009973;28;20072;-63
2023/12/18 06:29:32;;;;;;;16.50;7.20;;;;;;;;;;5027673;28;20033;-63
2023/12/18 06:31:57;;;;;;;15.13;7.20;;;;;;;;;;5018606;28;20319;-62
2023/12/18 06:34:22;;;;;;;15.98;7.60;;;;;;;;;;5015731;28;20389;-60
2023/12/18 06:36:48;;;;;;;15.43;7.07;;;;;;;;;;5009798;28;20080;-62
2023/12/18 06:39:13;;;;;;;17.17;7.40;;;;;;;;;;5014451;28;20022;-62
2023/12/18 06:41:39;;;;;;;13.63;6.55;;;;;;;;;;5021744;28;20021;-62
2023/12/18 06:44:04;;;;;;;14.43;7.05;;;;;;;;;;5021595;28;20036;-62
2023/12/18 06:46:30;;;;;;;15.82;7.10;;;;;;;;;;5019150;28;20132;-62
2023/12/18 06:48:55;;;;;;;18.53;7.90;;;;;;;;;;5031757;28;20097;-62
2023/12/18 06:51:20;;;;;;;16.30;7.25;;;;;;;;;;5021373;28;20153;-62
2023/12/18 06:53:46;;;;;;;14.35;7.43;;;;;;;;;;5018625;28;20025;-63
2023/12/18 06:56:12;;;;;;;13.43;6.97;;;;;;;;;;5032894;28;20061;-62
2023/12/18 06:58:37;;;;;;;14.93;6.65;;;;;;;;;;5019631;28;20143;-62
2023/12/18 07:01:02;;;;;;;13.40;6.15;;;;;;;;;;5023847;28;20084;-62
2023/12/18 07:03:27;;;;;;;15.83;7.10;;;;;;;;;;5031786;28;20029;-60
2023/12/18 07:05:53;;;;;;;17.13;7.38;;;;;;;;;;5032776;28;20108;-62
2023/12/18 07:08:18;;;;;;;16.23;7.03;;;;;;;;;;5020840;28;20032;-63
2023/12/18 07:10:43;;;;;;;13.23;6.20;;;;;;;;;;5031659;28;20017;-61
2023/12/18 07:13:08;;;;;;;16.73;7.20;;;;;;;;;;5029878;28;20029;-62
2023/12/18 07:15:33;;;;;;;18.20;7.45;;;;;;;;;;5027077;28;20061;-62
2023/12/18 07:17:58;;;;;;;16.70;7.43;;;;;;;;;;5023338;28;20404;-63
2023/12/18 07:20:24;;;;;;;16.50;6.63;;;;;;;;;;5012294;28;20021;-63
2023/12/18 07:22:49;;;;;;;15.20;6.65;;;;;;;;;;5012037;28;20025;-63
2023/12/18 07:25:15;;;;;;;14.20;6.88;;;;;;;;;;5009318;28;20052;-63
2023/12/18 07:27:40;;;;;;;16.43;6.67;;;;;;;;;;5014060;28;20033;-63
2023/12/18 07:30:05;;;;;;;15.88;6.20;;;;;;;;;;5014486;28;20108;-63
2023/12/18 07:32:31;;;;;;;15.68;7.15;;;;;;;;;;5015271;28;20669;-60
2023/12/18 07:34:59;;;;;;;15.45;6.90;;;;;;;;;;5014503;28;20091;-62
2023/12/18 07:37:25;;;;;;;18.35;7.15;;;;;;;;;;5012450;28;20028;-63
2023/12/18 07:39:50;;;;;;;17.60;7.00;;;;;;;;;;5014591;28;20037;-63
2023/12/18 07:42:16;;;;;;;16.73;6.78;;;;;;;;;;5014459;28;20025;-62
2023/12/18 07:44:41;;;;;;;15.45;7.00;;;;;;;;;;5014746;28;20041;-62
2023/12/18 07:47:07;;;;;;;15.87;7.03;;;;;;;;;;5012097;28;20520;-62
2023/12/18 07:49:32;;;;;;;15.35;6.82;;;;;;;;;;5013317;28;20604;-62
2023/12/18 07:51:57;;;;;;;15.40;6.70;;;;;;;;;;5009868;28;20124;-62
2023/12/18 07:54:23;;;;;;;14.50;7.07;;;;;;;;;;5005504;28;20025;-63
2023/12/18 07:56:48;;;;;;;15.90;7.25;;;;;;;;;;5007103;28;20113;-62
2023/12/18 07:59:15;;;;;;;19.10;7.95;;;;;;;;;;5007937;28;20030;-62
2023/12/18 08:01:40;;;;;;;16.23;7.28;;;;;;;;;;5010468;28;20060;-61
2023/12/18 08:04:05;;;;;;;17.33;7.85;;;;;;;;;;5016086;28;20072;-61
2023/12/18 08:06:31;;;;;;;14.48;7.30;;;;;;;;;;5019750;28;20149;-60
2023/12/18 08:08:56;;;;;;;13.75;6.55;;;;;;;;;;5018408;28;20029;-60
2023/12/18 08:11:22;;;;;;;17.15;7.90;;;;;;;;;;5017085;28;20148;-62
2023/12/18 08:13:48;;;;;;;15.75;7.35;;;;;;;;;;5008250;28;20021;-63
2023/12/18 08:16:13;;;;;;;14.73;6.75;;;;;;;;;;5006362;28;20021;-63
2023/12/18 08:18:42;;;;;;;14.82;6.75;;;;;;;;;;5005119;28;20029;-62
2023/12/18 08:21:10;;;;;;;13.82;6.95;;;;;;;;;;5005753;28;20037;-62
2023/12/18 08:23:35;;;;;;;15.20;7.00;;;;;;;;;;5005237;28;20401;-61
2023/12/18 08:26:01;;;;;;;17.92;8.02;;;;;;;;;;5006238;28;20034;-62
2023/12/18 08:28:26;;;;;;;16.73;7.00;;;;;;;;;;5003787;28;20103;-61
2023/12/18 08:30:51;;;;;;;16.02;7.18;;;;;;;;;;5003837;28;20430;-60
2023/12/18 08:33:16;;;;;;;18.52;8.15;;;;;;;;;;5006344;28;20527;-61
2023/12/18 08:35:41;;;;;;;16.03;7.67;;;;;;;;;;5005432;28;20030;-61
2023/12/18 08:38:06;;;;;;;18.20;7.23;;;;;;;;;;5005403;28;20123;-61
2023/12/18 08:40:31;;;;;;;17.47;7.50;;;;;;;;;;5002481;28;20032;-61
2023/12/18 08:42:57;;;;;;;17.20;8.03;;;;;;;;;;5003646;28;20065;-60
2023/12/18 08:45:22;;;;;;;13.17;7.03;;;;;;;;;;5004465;28;20033;-62
2023/12/18 08:47:47;;;;;;;16.30;7.07;;;;;;;;;;5001658;28;20026;-62
2023/12/18 08:50:12;;;;;;;15.13;7.10;;;;;;;;;;5004508;28;20422;-60
2023/12/18 08:52:38;;;;;;;13.98;6.68;;;;;;;;;;5005849;28;20021;-65
2023/12/18 08:55:03;;;;;;;15.47;6.97;;;;;;;;;;5019983;28;20052;-60
2023/12/18 08:57:28;;;;;;;16.83;7.57;;;;;;;;;;5006474;28;20025;-62
2023/12/18 08:59:55;;;;;;;15.17;6.03;;;;;;;;;;5005617;28;20017;-62
2023/12/18 09:02:21;;;;;;;12.65;6.43;;;;;;;;;;5003699;28;20053;-63
2023/12/18 09:04:46;;;;;;;16.65;7.30;;;;;;;;;;5006971;28;20397;-61
2023/12/18 09:07:12;;;;;;;17.42;7.97;;;;;;;;;;5005750;28;20533;-61
2023/12/18 09:09:39;;;;;;;14.37;6.63;;;;;;;;;;5004154;28;20022;-62
2023/12/18 09:12:04;;;;;;;14.15;6.43;;;;;;;;;;5003759;28;20531;-61
2023/12/18 09:14:29;;;;;;;13.60;5.83;;;;;;;;;;5004376;28;20025;-62
2023/12/18 09:16:55;;;;;;;15.80;7.35;;;;;;;;;;5006926;28;21751;-62
2023/12/18 09:19:20;;;;;;;13.02;5.90;;;;;;;;;;5004460;28;20034;-61
2023/12/18 09:21:45;;;;;;;13.00;6.18;;;;;;;;;;5008951;28;20033;-62
2023/12/18 09:24:10;;;;;;;12.25;5.70;;;;;;;;;;5008395;28;20493;-63
2023/12/18 09:26:35;;;;;;;14.90;6.10;;;;;;;;;;5007093;28;20072;-62
2023/12/18 09:29:01;;;;;;;15.07;6.68;;;;;;;;;;5008355;28;20206;-61
2023/12/18 09:31:26;;;;;;;13.80;6.17;;;;;;;;;;5005505;28;20053;-61
2023/12/18 09:33:51;;;;;;;19.57;7.03;;;;;;;;;;5006689;28;20108;-61
2023/12/18 09:36:17;;;;;;;15.47;7.77;;;;;;;;;;5004688;28;20029;-62
2023/12/18 09:38:44;;;;;;;16.98;8.75;;;;;;;;;;5005862;28;20049;-62
2023/12/18 09:41:09;;;;;;;18.90;8.32;;;;;;;;;;5005907;28;20065;-63
2023/12/18 09:43:34;;;;;;;18.10;8.32;;;;;;;;;;5003948;28;20482;-62
2023/12/18 09:45:59;;;;;;;17.23;8.03;;;;;;;;;;5004124;28;20034;-62
2023/12/18 09:48:24;;;;;;;15.67;7.50;;;;;;;;;;5001437;28;20561;-62
2023/12/18 09:50:49;;;;;;;16.58;8.10;;;;;;;;;;5004456;28;20431;-62
2023/12/18 09:53:17;;;;;;;17.30;7.83;;;;;;;;;;5004988;28;20464;-62
2023/12/18 09:55:42;;;;;;;13.93;6.88;;;;;;;;;;5005177;28;20033;-62
2023/12/18 09:58:08;;;;;;;13.13;6.73;;;;;;;;;;5004606;28;20030;-63
2023/12/18 10:00:33;;;;;;;13.82;6.32;;;;;;;;;;5006821;28;20027;-62
2023/12/18 10:02:59;;;;;;;18.30;7.45;;;;;;;;;;5003689;28;20029;-61
2023/12/18 10:05:24;;;;;;;17.00;7.65;;;;;;;;;;5003745;28;20350;-62
2023/12/18 10:07:53;;;;;;;17.93;7.77;;;;;;;;;;5004571;28;20036;-61
2023/12/18 10:10:18;;;;;;;14.15;6.93;;;;;;;;;;5004322;28;21690;-61
2023/12/18 10:12:45;;;;;;;14.23;6.93;;;;;;;;;;5003662;28;20070;-61
2023/12/18 10:15:14;;;;;;;13.27;6.65;;;;;;;;;;5003464;28;20029;-62
2023/12/18 10:17:40;;;;;;;14.23;6.63;;;;;;;;;;5005536;28;20037;-62
2023/12/18 10:20:06;;;;;;;15.32;6.97;;;;;;;;;;5008866;28;20049;-62
2023/12/18 10:22:31;;;;;;;15.50;6.60;;;;;;;;;;5008386;28;20112;-62
2023/12/18 10:24:57;;;;;;;13.23;6.20;;;;;;;;;;5009420;28;20037;-62
2023/12/18 10:27:22;;;;;;;12.35;5.85;;;;;;;;;;5008037;28;21035;-62
2023/12/18 10:29:47;;;;;;;15.00;6.93;;;;;;;;;;5008403;28;20033;-61
2023/12/18 10:32:13;;;;;;;14.80;6.70;;;;;;;;;;5008765;28;20024;-62
2023/12/18 10:34:38;;;;;;;14.27;6.43;;;;;;;;;;5007055;28;20827;-62
2023/12/18 10:37:03;;;;;;;15.25;6.25;;;;;;;;;;5006904;28;20040;-61
2023/12/18 10:39:29;;;;;;;14.00;6.47;;;;;;;;;;5008087;28;20030;-60
2023/12/18 10:41:58;;;;;;;13.70;6.78;;;;;;;;;;5006282;28;20616;-61
2023/12/18 10:44:25;;;;;;;17.50;6.75;;;;;;;;;;5007997;28;20037;-62
2023/12/18 10:46:50;;;;;;;14.73;7.75;;;;;;;;;;5006795;28;20520;-63
2023/12/18 10:49:16;;;;;;;13.20;6.25;;;;;;;;;;5008453;28;20029;-61
2023/12/18 10:51:42;;;;;;;14.57;6.68;;;;;;;;;;5006571;28;20044;-61
2023/12/18 10:54:08;;;;;;;16.35;6.47;;;;;;;;;;5005730;28;20025;-62
2023/12/18 10:56:34;;;;;;;12.50;6.60;;;;;;;;;;5007923;28;20041;-62
2023/12/18 10:59:00;;;;;;;;;;;;;;;;;;5009852;28;20030;-62
2023/12/18 11:01:25;;;;;;;10.77;5.30;;;;;;;;;;5009993;28;19932;-60
2023/12/18 11:03:50;;;;;;;13.77;7.00;;;;;;;;;;5010167;28;20049;-60
2023/12/18 11:06:16;;;;;;;12.13;6.28;;;;;;;;;;5011288;28;20403;-60
2023/12/18 11:08:41;;;;;;;13.45;6.22;;;;;;;;;;5006321;28;20405;-64
2023/12/18 11:11:07;;;;;;;13.47;7.20;;;;;;;;;;5006211;28;20378;-62
2023/12/18 11:13:40;;;;;;;12.95;6.68;;;;;;;;;;5008954;28;20489;-62
2023/12/18 11:16:23;;;;;;;11.85;5.32;;;;;;;;;;5009364;28;20029;-62
2023/12/18 11:19:12;;;;;;;12.63;6.13;;;;;;;;;;5006361;28;20116;-62
2023/12/18 11:21:39;;;;;;;9.77;4.72;;;;;;;;;;5003196;28;20080;-63
2023/12/18 11:24:05;;;;;;;14.38;8.73;;;;;;;;;;5008262;28;20030;-62
2023/12/18 11:26:30;;;;;;;12.77;5.45;;;;;;;;;;5007293;28;20620;-63
2023/12/18 11:28:58;;;;;;;23.42;21.20;;;;;;;;;;5007665;28;20068;-63
2023/12/18 11:31:23;;;;;;;10.93;4.75;;;;;;;;;;5008992;28;20033;-62
2023/12/18 11:33:58;;;;;;;11.47;7.03;;;;;;;;;;5008857;28;20040;-62
2023/12/18 11:36:25;;;;;;;11.20;4.82;;;;;;;;;;5006115;28;20084;-62
2023/12/18 11:38:50;;;;;;;11.88;7.25;;;;;;;;;;5007537;28;20632;-62
2023/12/18 11:41:34;;;;;;;13.80;8.80;;;;;;;;;;5006776;28;20033;-62
2023/12/18 11:43:59;;;;;;;;;;;;;;;;;;5005270;28;20056;-62
2023/12/18 11:46:25;;;;;;;11.95;5.10;;;;;;;;;;5007316;28;20011;-61
2023/12/18 11:48:51;;;;;;;11.48;8.68;;;;;;;;;;5007785;28;20112;-61
2023/12/18 11:51:17;;;;;;;8.93;5.63;;;;;;;;;;5005335;28;20040;-62
2023/12/18 11:53:42;;;;;;;10.68;5.65;;;;;;;;;;5007142;28;20092;-62
2023/12/18 11:56:08;;;;;;;11.00;9.90;;;;;;;;;;5006845;28;20030;-62
2023/12/18 11:58:33;;;;;;;11.00;4.90;;;;;;;;;;5007026;28;20029;-61
2023/12/18 12:00:59;;;;;;;24.30;22.35;;;;;;;;;;5004941;28;20026;-62
2023/12/18 12:03:25;;;;;;;9.32;4.32;;;;;;;;;;5004639;28;20086;-63
2023/12/18 12:05:51;;;;;;;10.20;8.93;;;;;;;;;;5001130;28;20037;-62
2023/12/18 12:08:16;;;;;;;9.18;4.63;;;;;;;;;;5003563;28;20029;-62
2023/12/18 12:10:43;;;;;;;12.40;9.10;;;;;;;;;;5003774;28;20013;-61
2023/12/18 12:13:15;;;;;;;8.18;4.63;;;;;;;;;;5003983;28;20827;-62
2023/12/18 12:15:42;;;;;;;10.52;8.15;;;;;;;;;;5004959;28;20040;-61
2023/12/18 12:18:07;;;;;;;9.48;6.32;;;;;;;;;;5003661;28;20021;-59
2023/12/18 12:20:33;;;;;;;9.23;4.43;;;;;;;;;;5001989;28;20076;-60
2023/12/18 12:22:58;;;;;;;11.23;6.60;;;;;;;;;;5000667;28;20037;-60
2023/12/18 12:25:23;;;;;;;9.18;4.47;;;;;;;;;;5001243;28;20597;-60
2023/12/18 12:27:48;;;;;;;18.52;16.92;;;;;;;;;;5003613;28;20424;-60
2023/12/18 12:30:14;;;;;;;9.63;4.10;;;;;;;;;;4999660;28;20029;-61
2023/12/18 12:32:39;;;;;;;9.18;6.10;;;;;;;;;;4999812;28;20458;-60
2023/12/18 12:35:07;;;;;;;9.13;4.07;;;;;;;;;;5002738;28;20031;-60
2023/12/18 12:37:32;;;;;;;8.30;3.65;;;;;;;;;;5001745;28;20128;-60
2023/12/18 12:40:02;;;;;;;9.07;7.05;;;;;;;;;;5003410;28;20471;-60
2023/12/18 12:42:29;;;;;;;10.50;4.47;;;;;;;;;;5004263;28;20025;-60
2023/12/18 12:44:54;;;;;;;20.02;15.57;;;;;;;;;;5002831;28;20044;-60
2023/12/18 12:47:19;;;;;;;11.50;4.77;;;;;;;;;;5003517;28;20036;-60
2023/12/18 12:49:46;;;;;;;14.00;12.37;;;;;;;;;;5002377;28;20668;-62
2023/12/18 12:52:12;;;;;;;16.10;12.82;;;;;;;;;;5005886;28;20684;-61
2023/12/18 12:54:37;;;;;;;14.05;6.40;;;;;;;;;;5006627;28;20029;-62
2023/12/18 12:57:02;;;;;;;12.43;10.07;;;;;;;;;;5007493;28;20025;-60
2023/12/18 12:59:28;;;;;;;11.40;4.67;;;;;;;;;;5006741;28;20070;-61
2023/12/18 13:01:53;;;;;;;13.38;8.65;;;;;;;;;;5007714;28;20468;-62
2023/12/18 13:04:18;;;;;;;11.13;6.38;;;;;;;;;;5011240;28;20029;-61
2023/12/18 13:06:43;;;;;;;13.57;11.52;;;;;;;;;;5010972;28;20032;-61
2023/12/18 13:09:09;;;;;;;10.98;5.15;;;;;;;;;;5007339;28;20115;-62
2023/12/18 13:11:38;;;;;;;11.93;4.78;;;;;;;;;;5007961;28;20029;-62
2023/12/18 13:14:03;;;;;;;10.40;5.10;;;;;;;;;;5006840;28;20056;-61
2023/12/18 13:16:28;;;;;;;11.17;4.77;;;;;;;;;;5007952;28;20053;-62
2023/12/18 13:18:53;;;;;;;10.55;5.47;;;;;;;;;;5007445;28;20037;-65
2023/12/18 13:21:18;;;;;;;9.02;4.72;;;;;;;;;;5005936;28;20033;-62
2023/12/18 13:23:43;;;;;;;10.20;7.13;;;;;;;;;;5008003;28;20373;-61
2023/12/18 13:26:08;;;;;;;9.25;6.00;;;;;;;;;;5010120;28;20060;-62
2023/12/18 13:28:34;;;;;;;19.80;18.23;;;;;;;;;;5009383;28;20681;-62
2023/12/18 13:31:00;;;;;;;12.40;11.13;;;;;;;;;;5007569;28;20056;-61
2023/12/18 13:33:26;;;;;;;12.27;8.32;;;;;;;;;;5006354;28;20037;-61
2023/12/18 13:35:51;;;;;;;13.10;7.53;;;;;;;;;;5011874;28;20030;-61
2023/12/18 13:38:16;;;;;;;8.77;4.23;;;;;;;;;;5017423;28;20033;-61
2023/12/18 13:40:41;;;;;;;10.23;7.30;;;;;;;;;;5013417;28;20049;-61
2023/12/18 13:43:06;;;;;;;11.98;7.63;;;;;;;;;;5011369;28;20030;-62
2023/12/18 13:45:31;;;;;;;9.50;4.32;;;;;;;;;;5010143;28;20745;-61
2023/12/18 13:47:57;;;;;;;7.80;3.60;;;;;;;;;;5013404;28;20033;-61
2023/12/18 13:50:22;;;;;;;10.30;4.87;;;;;;;;;;5010914;28;20028;-61
2023/12/18 13:52:48;;;;;;;12.40;6.45;;;;;;;;;;5018309;28;20066;-62
2023/12/18 13:55:13;;;;;;;12.52;8.93;;;;;;;;;;5023503;28;20064;-61
2023/12/18 13:57:38;;;;;;;8.90;4.23;;;;;;;;;;5022590;28;20057;-61
2023/12/18 14:00:04;;;;;;;12.05;9.48;;;;;;;;;;5011783;28;20105;-61
2023/12/18 14:02:32;;;;;;;10.43;4.55;;;;;;;;;;5010227;28;20036;-62
2023/12/18 14:04:57;;;;;;;11.50;8.68;;;;;;;;;;5010694;28;20117;-62
2023/12/18 14:07:22;;;;;;;20.88;18.88;;;;;;;;;;5011126;28;20017;-61
2023/12/18 14:09:47;;;;;;;12.50;8.15;;;;;;;;;;5012027;28;20037;-61
2023/12/18 14:12:13;;;;;;;9.43;5.37;;;;;;;;;;5011119;28;20083;-62
2023/12/18 14:14:38;;;;;;;10.77;5.13;;;;;;;;;;5012462;28;20116;-61
2023/12/18 14:17:03;;;;;;;8.53;3.80;;;;;;;;;;5010374;28;20025;-61
2023/12/18 14:19:28;;;;;;;12.23;6.53;;;;;;;;;;5011090;28;20025;-60
2023/12/18 14:21:53;;;;;;;8.57;4.38;;;;;;;;;;5012112;28;20043;-60